sensor_id;sensor_type;location;lat;lon;timestamp;P1;durP1;ratioP1;P2;durP2;ratioP2
39442;SDS011;25147;52.142;9.960;2023-05-29T00:02:06;9.65;;;5.57;;
39442;SDS011;25147;52.142;9.960;2023-05-29T00:04:33;8.13;;;5.43;;
39442;SDS011;25147;52.142;9.960;2023-05-29T00:07:03;7.28;;;5.40;;
39442;SDS011;25147;52.142;9.960;2023-05-29T00:09:31;6.88;;;5.30;;
39442;SDS011;25147;52.142;9.960;2023-05-29T00:12:05;5.43;;;4.80;;
39442;SDS011;25147;52.142;9.960;2023-05-29T00:14:34;8.13;;;5.30;;
39442;SDS011;25147;52.142;9.960;2023-05-29T00:17:01;7.03;;;4.70;;
39442;SDS011;25147;52.142;9.960;2023-05-29T00:19:30;7.30;;;4.88;;
39442;SDS011;25147;52.142;9.960;2023-05-29T00:22:00;6.82;;;4.97;;
39442;SDS011;25147;52.142;9.960;2023-05-29T00:24:27;8.02;;;5.30;;
39442;SDS011;25147;52.142;9.960;2023-05-29T00:26:59;8.45;;;5.05;;
39442;SDS011;25147;52.142;9.960;2023-05-29T00:29:27;9.52;;;5.57;;
39442;SDS011;25147;52.142;9.960;2023-05-29T00:31:59;7.03;;;4.68;;
39442;SDS011;25147;52.142;9.960;2023-05-29T00:34:28;7.72;;;4.82;;
39442;SDS011;25147;52.142;9.960;2023-05-29T00:37:00;7.45;;;4.93;;
39442;SDS011;25147;52.142;9.960;2023-05-29T00:39:33;9.25;;;5.30;;
39442;SDS011;25147;52.142;9.960;2023-05-29T00:42:01;8.65;;;5.07;;
39442;SDS011;25147;52.142;9.960;2023-05-29T00:44:28;7.40;;;5.10;;
39442;SDS011;25147;52.142;9.960;2023-05-29T00:47:03;9.70;;;5.68;;
39442;SDS011;25147;52.142;9.960;2023-05-29T00:49:36;7.95;;;4.75;;
39442;SDS011;25147;52.142;9.960;2023-05-29T00:52:04;9.13;;;5.38;;
39442;SDS011;25147;52.142;9.960;2023-05-29T00:54:33;9.00;;;5.10;;
39442;SDS011;25147;52.142;9.960;2023-05-29T00:57:02;8.23;;;4.90;;
39442;SDS011;25147;52.142;9.960;2023-05-29T00:59:32;8.52;;;5.10;;
39442;SDS011;25147;52.142;9.960;2023-05-29T01:02:05;7.65;;;4.78;;
39442;SDS011;25147;52.142;9.960;2023-05-29T01:04:34;7.65;;;5.05;;
39442;SDS011;25147;52.142;9.960;2023-05-29T01:07:02;7.32;;;5.03;;
39442;SDS011;25147;52.142;9.960;2023-05-29T01:09:29;8.38;;;4.72;;
39442;SDS011;25147;52.142;9.960;2023-05-29T01:12:02;9.88;;;4.78;;
39442;SDS011;25147;52.142;9.960;2023-05-29T01:14:45;7.57;;;4.57;;
39442;SDS011;25147;52.142;9.960;2023-05-29T01:20:27;8.20;;;5.03;;
39442;SDS011;25147;52.142;9.960;2023-05-29T01:26:06;7.68;;;4.80;;
39442;SDS011;25147;52.142;9.960;2023-05-29T01:28:40;8.68;;;4.60;;
39442;SDS011;25147;52.142;9.960;2023-05-29T01:31:11;8.73;;;4.63;;
39442;SDS011;25147;52.142;9.960;2023-05-29T01:33:39;8.25;;;5.20;;
39442;SDS011;25147;52.142;9.960;2023-05-29T01:36:10;8.75;;;4.50;;
39442;SDS011;25147;52.142;9.960;2023-05-29T01:38:40;10.20;;;4.50;;
39442;SDS011;25147;52.142;9.960;2023-05-29T01:41:07;8.18;;;4.38;;
39442;SDS011;25147;52.142;9.960;2023-05-29T01:43:34;8.80;;;4.55;;
39442;SDS011;25147;52.142;9.960;2023-05-29T01:46:03;7.63;;;4.60;;
39442;SDS011;25147;52.142;9.960;2023-05-29T01:48:30;8.77;;;4.30;;
39442;SDS011;25147;52.142;9.960;2023-05-29T01:50:57;10.02;;;4.40;;
39442;SDS011;25147;52.142;9.960;2023-05-29T01:53:25;10.73;;;4.70;;
39442;SDS011;25147;52.142;9.960;2023-05-29T01:55:52;7.30;;;4.50;;
39442;SDS011;25147;52.142;9.960;2023-05-29T01:58:20;7.72;;;4.45;;
39442;SDS011;25147;52.142;9.960;2023-05-29T02:00:48;12.15;;;4.80;;
39442;SDS011;25147;52.142;9.960;2023-05-29T02:03:18;9.38;;;4.40;;
39442;SDS011;25147;52.142;9.960;2023-05-29T02:05:46;10.57;;;4.20;;
39442;SDS011;25147;52.142;9.960;2023-05-29T02:08:14;9.60;;;4.70;;
39442;SDS011;25147;52.142;9.960;2023-05-29T02:10:47;6.68;;;3.97;;
39442;SDS011;25147;52.142;9.960;2023-05-29T02:13:17;9.20;;;4.50;;
39442;SDS011;25147;52.142;9.960;2023-05-29T02:15:44;8.05;;;3.83;;
39442;SDS011;25147;52.142;9.960;2023-05-29T02:18:12;9.13;;;4.45;;
39442;SDS011;25147;52.142;9.960;2023-05-29T02:20:42;9.48;;;4.05;;
39442;SDS011;25147;52.142;9.960;2023-05-29T02:23:10;9.07;;;3.90;;
39442;SDS011;25147;52.142;9.960;2023-05-29T02:25:40;9.02;;;3.92;;
39442;SDS011;25147;52.142;9.960;2023-05-29T02:28:12;8.38;;;4.38;;
39442;SDS011;25147;52.142;9.960;2023-05-29T02:30:43;11.90;;;4.70;;
39442;SDS011;25147;52.142;9.960;2023-05-29T02:33:10;9.30;;;4.25;;
39442;SDS011;25147;52.142;9.960;2023-05-29T02:35:37;6.70;;;3.75;;
39442;SDS011;25147;52.142;9.960;2023-05-29T02:38:06;9.55;;;3.90;;
39442;SDS011;25147;52.142;9.960;2023-05-29T02:40:36;9.43;;;3.90;;
39442;SDS011;25147;52.142;9.960;2023-05-29T02:43:07;9.82;;;4.10;;
39442;SDS011;25147;52.142;9.960;2023-05-29T02:45:37;12.05;;;4.10;;
39442;SDS011;25147;52.142;9.960;2023-05-29T02:48:04;7.78;;;3.83;;
39442;SDS011;25147;52.142;9.960;2023-05-29T02:50:31;5.88;;;3.80;;
39442;SDS011;25147;52.142;9.960;2023-05-29T02:52:58;8.85;;;3.95;;
39442;SDS011;25147;52.142;9.960;2023-05-29T02:55:29;7.32;;;4.13;;
39442;SDS011;25147;52.142;9.960;2023-05-29T02:58:01;8.43;;;3.67;;
39442;SDS011;25147;52.142;9.960;2023-05-29T03:00:28;7.75;;;4.30;;
39442;SDS011;25147;52.142;9.960;2023-05-29T03:02:55;8.88;;;4.55;;
39442;SDS011;25147;52.142;9.960;2023-05-29T03:05:22;9.10;;;3.60;;
39442;SDS011;25147;52.142;9.960;2023-05-29T03:07:51;9.63;;;3.88;;
39442;SDS011;25147;52.142;9.960;2023-05-29T03:10:21;10.95;;;4.15;;
39442;SDS011;25147;52.142;9.960;2023-05-29T03:12:50;13.40;;;4.03;;
39442;SDS011;25147;52.142;9.960;2023-05-29T03:15:21;7.88;;;3.63;;
39442;SDS011;25147;52.142;9.960;2023-05-29T03:17:59;10.40;;;4.10;;
39442;SDS011;25147;52.142;9.960;2023-05-29T03:20:28;7.45;;;3.58;;
39442;SDS011;25147;52.142;9.960;2023-05-29T03:22:56;10.95;;;3.72;;
39442;SDS011;25147;52.142;9.960;2023-05-29T03:25:24;9.43;;;3.85;;
39442;SDS011;25147;52.142;9.960;2023-05-29T03:28:05;7.88;;;3.42;;
39442;SDS011;25147;52.142;9.960;2023-05-29T03:30:34;8.40;;;4.10;;
39442;SDS011;25147;52.142;9.960;2023-05-29T03:33:04;10.05;;;4.05;;
39442;SDS011;25147;52.142;9.960;2023-05-29T03:35:34;11.23;;;3.97;;
39442;SDS011;25147;52.142;9.960;2023-05-29T03:38:07;7.75;;;3.80;;
39442;SDS011;25147;52.142;9.960;2023-05-29T03:40:36;12.82;;;4.00;;
39442;SDS011;25147;52.142;9.960;2023-05-29T03:43:05;7.13;;;3.83;;
39442;SDS011;25147;52.142;9.960;2023-05-29T03:45:36;7.72;;;3.63;;
39442;SDS011;25147;52.142;9.960;2023-05-29T03:48:11;8.43;;;4.35;;
39442;SDS011;25147;52.142;9.960;2023-05-29T03:50:39;7.25;;;3.90;;
39442;SDS011;25147;52.142;9.960;2023-05-29T03:53:09;11.32;;;3.85;;
39442;SDS011;25147;52.142;9.960;2023-05-29T03:55:42;5.80;;;3.72;;
39442;SDS011;25147;52.142;9.960;2023-05-29T03:58:11;8.48;;;3.78;;
39442;SDS011;25147;52.142;9.960;2023-05-29T04:00:39;9.38;;;4.35;;
39442;SDS011;25147;52.142;9.960;2023-05-29T04:03:10;9.60;;;3.70;;
39442;SDS011;25147;52.142;9.960;2023-05-29T04:05:37;8.98;;;3.90;;
39442;SDS011;25147;52.142;9.960;2023-05-29T04:08:08;9.60;;;4.10;;
39442;SDS011;25147;52.142;9.960;2023-05-29T04:10:40;6.68;;;3.60;;
39442;SDS011;25147;52.142;9.960;2023-05-29T04:13:08;6.80;;;3.50;;
39442;SDS011;25147;52.142;9.960;2023-05-29T04:15:37;6.97;;;3.72;;
39442;SDS011;25147;52.142;9.960;2023-05-29T04:18:07;12.38;;;3.92;;
39442;SDS011;25147;52.142;9.960;2023-05-29T04:20:33;9.40;;;4.00;;
39442;SDS011;25147;52.142;9.960;2023-05-29T04:23:00;9.80;;;3.50;;
39442;SDS011;25147;52.142;9.960;2023-05-29T04:25:27;10.25;;;4.15;;
39442;SDS011;25147;52.142;9.960;2023-05-29T04:28:00;9.95;;;3.92;;
39442;SDS011;25147;52.142;9.960;2023-05-29T04:30:31;6.45;;;3.83;;
39442;SDS011;25147;52.142;9.960;2023-05-29T04:33:00;9.38;;;4.10;;
39442;SDS011;25147;52.142;9.960;2023-05-29T04:35:28;5.78;;;3.55;;
39442;SDS011;25147;52.142;9.960;2023-05-29T04:37:55;8.43;;;3.88;;
39442;SDS011;25147;52.142;9.960;2023-05-29T04:40:23;8.45;;;3.92;;
39442;SDS011;25147;52.142;9.960;2023-05-29T04:42:49;10.18;;;4.28;;
39442;SDS011;25147;52.142;9.960;2023-05-29T04:45:19;12.27;;;4.00;;
39442;SDS011;25147;52.142;9.960;2023-05-29T04:47:47;10.68;;;3.75;;
39442;SDS011;25147;52.142;9.960;2023-05-29T04:50:16;9.10;;;3.78;;
39442;SDS011;25147;52.142;9.960;2023-05-29T04:52:43;7.22;;;3.70;;
39442;SDS011;25147;52.142;9.960;2023-05-29T04:55:10;7.13;;;3.35;;
39442;SDS011;25147;52.142;9.960;2023-05-29T04:57:37;7.50;;;3.60;;
39442;SDS011;25147;52.142;9.960;2023-05-29T05:00:05;6.45;;;3.65;;
39442;SDS011;25147;52.142;9.960;2023-05-29T05:02:34;6.82;;;3.35;;
39442;SDS011;25147;52.142;9.960;2023-05-29T05:05:02;10.30;;;4.13;;
39442;SDS011;25147;52.142;9.960;2023-05-29T05:07:30;7.97;;;3.88;;
39442;SDS011;25147;52.142;9.960;2023-05-29T05:10:01;6.82;;;3.65;;
39442;SDS011;25147;52.142;9.960;2023-05-29T05:12:28;6.90;;;3.70;;
39442;SDS011;25147;52.142;9.960;2023-05-29T05:14:56;9.13;;;3.97;;
39442;SDS011;25147;52.142;9.960;2023-05-29T05:17:23;12.23;;;3.67;;
39442;SDS011;25147;52.142;9.960;2023-05-29T05:19:53;7.95;;;4.00;;
39442;SDS011;25147;52.142;9.960;2023-05-29T05:22:22;6.70;;;3.40;;
39442;SDS011;25147;52.142;9.960;2023-05-29T05:24:50;8.43;;;3.75;;
39442;SDS011;25147;52.142;9.960;2023-05-29T05:27:19;9.02;;;3.58;;
39442;SDS011;25147;52.142;9.960;2023-05-29T05:29:46;11.48;;;3.60;;
39442;SDS011;25147;52.142;9.960;2023-05-29T05:32:13;9.18;;;3.38;;
39442;SDS011;25147;52.142;9.960;2023-05-29T05:34:40;8.00;;;3.67;;
39442;SDS011;25147;52.142;9.960;2023-05-29T05:37:07;7.05;;;3.17;;
39442;SDS011;25147;52.142;9.960;2023-05-29T05:39:34;10.38;;;4.00;;
39442;SDS011;25147;52.142;9.960;2023-05-29T05:42:05;10.10;;;3.45;;
39442;SDS011;25147;52.142;9.960;2023-05-29T05:44:33;12.65;;;3.75;;
39442;SDS011;25147;52.142;9.960;2023-05-29T05:47:00;8.27;;;3.63;;
39442;SDS011;25147;52.142;9.960;2023-05-29T05:49:27;9.07;;;3.42;;
39442;SDS011;25147;52.142;9.960;2023-05-29T05:51:54;9.60;;;3.70;;
39442;SDS011;25147;52.142;9.960;2023-05-29T05:54:21;9.50;;;3.90;;
39442;SDS011;25147;52.142;9.960;2023-05-29T05:56:48;10.25;;;4.20;;
39442;SDS011;25147;52.142;9.960;2023-05-29T05:59:17;11.00;;;3.60;;
39442;SDS011;25147;52.142;9.960;2023-05-29T06:01:44;9.05;;;3.85;;
39442;SDS011;25147;52.142;9.960;2023-05-29T06:04:13;15.88;;;4.57;;
39442;SDS011;25147;52.142;9.960;2023-05-29T06:06:39;9.95;;;3.78;;
39442;SDS011;25147;52.142;9.960;2023-05-29T06:09:06;10.88;;;4.07;;
39442;SDS011;25147;52.142;9.960;2023-05-29T06:11:34;10.32;;;4.03;;
39442;SDS011;25147;52.142;9.960;2023-05-29T06:14:02;9.05;;;3.65;;
39442;SDS011;25147;52.142;9.960;2023-05-29T06:16:31;9.23;;;3.47;;
39442;SDS011;25147;52.142;9.960;2023-05-29T06:18:58;11.75;;;4.07;;
39442;SDS011;25147;52.142;9.960;2023-05-29T06:21:24;9.75;;;3.63;;
39442;SDS011;25147;52.142;9.960;2023-05-29T06:23:51;10.60;;;4.00;;
39442;SDS011;25147;52.142;9.960;2023-05-29T06:26:18;7.72;;;3.83;;
39442;SDS011;25147;52.142;9.960;2023-05-29T06:28:45;12.10;;;4.10;;
39442;SDS011;25147;52.142;9.960;2023-05-29T06:31:12;9.65;;;3.53;;
39442;SDS011;25147;52.142;9.960;2023-05-29T06:33:41;13.52;;;4.30;;
39442;SDS011;25147;52.142;9.960;2023-05-29T06:36:08;7.55;;;3.35;;
39442;SDS011;25147;52.142;9.960;2023-05-29T06:38:36;10.82;;;3.38;;
39442;SDS011;25147;52.142;9.960;2023-05-29T06:41:03;11.68;;;3.88;;
39442;SDS011;25147;52.142;9.960;2023-05-29T06:43:30;8.40;;;3.53;;
39442;SDS011;25147;52.142;9.960;2023-05-29T06:45:57;9.15;;;3.40;;
39442;SDS011;25147;52.142;9.960;2023-05-29T06:48:24;10.07;;;3.33;;
39442;SDS011;25147;52.142;9.960;2023-05-29T06:50:55;9.48;;;3.83;;
39442;SDS011;25147;52.142;9.960;2023-05-29T06:53:22;9.75;;;4.07;;
39442;SDS011;25147;52.142;9.960;2023-05-29T06:55:51;10.63;;;3.80;;
39442;SDS011;25147;52.142;9.960;2023-05-29T06:58:19;8.65;;;3.53;;
39442;SDS011;25147;52.142;9.960;2023-05-29T07:00:46;10.82;;;3.70;;
39442;SDS011;25147;52.142;9.960;2023-05-29T07:03:13;9.90;;;3.88;;
39442;SDS011;25147;52.142;9.960;2023-05-29T07:05:40;13.55;;;4.18;;
39442;SDS011;25147;52.142;9.960;2023-05-29T07:08:08;9.00;;;3.50;;
39442;SDS011;25147;52.142;9.960;2023-05-29T07:10:35;11.80;;;3.95;;
39442;SDS011;25147;52.142;9.960;2023-05-29T07:13:01;6.68;;;3.50;;
39442;SDS011;25147;52.142;9.960;2023-05-29T07:15:33;7.70;;;3.28;;
39442;SDS011;25147;52.142;9.960;2023-05-29T07:18:01;7.70;;;3.35;;
39442;SDS011;25147;52.142;9.960;2023-05-29T07:20:28;10.75;;;3.45;;
39442;SDS011;25147;52.142;9.960;2023-05-29T07:22:56;11.02;;;3.80;;
39442;SDS011;25147;52.142;9.960;2023-05-29T07:25:24;11.70;;;3.90;;
39442;SDS011;25147;52.142;9.960;2023-05-29T07:27:55;11.75;;;3.90;;
39442;SDS011;25147;52.142;9.960;2023-05-29T07:30:22;10.93;;;3.75;;
39442;SDS011;25147;52.142;9.960;2023-05-29T07:32:49;10.00;;;3.75;;
39442;SDS011;25147;52.142;9.960;2023-05-29T07:35:16;8.38;;;3.60;;
39442;SDS011;25147;52.142;9.960;2023-05-29T07:37:49;8.15;;;3.25;;
39442;SDS011;25147;52.142;9.960;2023-05-29T07:40:17;11.93;;;3.55;;
39442;SDS011;25147;52.142;9.960;2023-05-29T07:42:46;9.60;;;4.07;;
39442;SDS011;25147;52.142;9.960;2023-05-29T07:45:12;9.38;;;3.17;;
39442;SDS011;25147;52.142;9.960;2023-05-29T07:47:46;11.25;;;3.58;;
39442;SDS011;25147;52.142;9.960;2023-05-29T07:50:13;10.70;;;3.40;;
39442;SDS011;25147;52.142;9.960;2023-05-29T07:52:43;7.72;;;3.20;;
39442;SDS011;25147;52.142;9.960;2023-05-29T07:55:10;9.77;;;3.38;;
39442;SDS011;25147;52.142;9.960;2023-05-29T07:57:37;8.90;;;3.70;;
39442;SDS011;25147;52.142;9.960;2023-05-29T08:00:06;12.23;;;3.22;;
39442;SDS011;25147;52.142;9.960;2023-05-29T08:02:34;8.35;;;3.42;;
39442;SDS011;25147;52.142;9.960;2023-05-29T08:05:01;11.15;;;3.90;;
39442;SDS011;25147;52.142;9.960;2023-05-29T08:07:28;13.48;;;3.70;;
39442;SDS011;25147;52.142;9.960;2023-05-29T08:09:55;8.88;;;3.22;;
39442;SDS011;25147;52.142;9.960;2023-05-29T08:12:22;7.85;;;3.42;;
39442;SDS011;25147;52.142;9.960;2023-05-29T08:14:50;9.73;;;3.75;;
39442;SDS011;25147;52.142;9.960;2023-05-29T08:17:18;8.32;;;3.40;;
39442;SDS011;25147;52.142;9.960;2023-05-29T08:19:46;9.10;;;3.70;;
39442;SDS011;25147;52.142;9.960;2023-05-29T08:22:14;10.18;;;3.40;;
39442;SDS011;25147;52.142;9.960;2023-05-29T08:24:41;9.50;;;3.22;;
39442;SDS011;25147;52.142;9.960;2023-05-29T08:27:09;11.18;;;4.18;;
39442;SDS011;25147;52.142;9.960;2023-05-29T08:29:36;10.13;;;3.40;;
39442;SDS011;25147;52.142;9.960;2023-05-29T08:32:06;12.43;;;4.03;;
39442;SDS011;25147;52.142;9.960;2023-05-29T08:34:35;8.32;;;3.53;;
39442;SDS011;25147;52.142;9.960;2023-05-29T08:37:02;9.55;;;3.63;;
39442;SDS011;25147;52.142;9.960;2023-05-29T08:39:30;12.60;;;3.97;;
39442;SDS011;25147;52.142;9.960;2023-05-29T08:41:59;11.18;;;3.92;;
39442;SDS011;25147;52.142;9.960;2023-05-29T08:44:30;10.35;;;3.58;;
39442;SDS011;25147;52.142;9.960;2023-05-29T08:47:02;11.70;;;3.88;;
39442;SDS011;25147;52.142;9.960;2023-05-29T08:49:33;10.05;;;3.60;;
39442;SDS011;25147;52.142;9.960;2023-05-29T08:52:08;11.13;;;3.53;;
39442;SDS011;25147;52.142;9.960;2023-05-29T08:54:39;7.40;;;3.38;;
39442;SDS011;25147;52.142;9.960;2023-05-29T08:57:10;8.35;;;3.38;;
39442;SDS011;25147;52.142;9.960;2023-05-29T08:59:39;8.55;;;3.28;;
39442;SDS011;25147;52.142;9.960;2023-05-29T09:02:09;9.00;;;3.35;;
39442;SDS011;25147;52.142;9.960;2023-05-29T09:04:38;9.68;;;3.40;;
39442;SDS011;25147;52.142;9.960;2023-05-29T09:07:07;11.32;;;3.60;;
39442;SDS011;25147;52.142;9.960;2023-05-29T09:09:34;9.50;;;3.22;;
39442;SDS011;25147;52.142;9.960;2023-05-29T09:12:05;7.63;;;3.58;;
39442;SDS011;25147;52.142;9.960;2023-05-29T09:14:33;10.32;;;3.28;;
39442;SDS011;25147;52.142;9.960;2023-05-29T09:17:05;7.55;;;3.17;;
39442;SDS011;25147;52.142;9.960;2023-05-29T09:19:33;8.55;;;2.80;;
39442;SDS011;25147;52.142;9.960;2023-05-29T09:22:03;9.70;;;3.00;;
39442;SDS011;25147;52.142;9.960;2023-05-29T09:24:32;9.52;;;2.70;;
39442;SDS011;25147;52.142;9.960;2023-05-29T09:26:59;9.80;;;2.97;;
39442;SDS011;25147;52.142;9.960;2023-05-29T09:29:27;8.48;;;3.22;;
39442;SDS011;25147;52.142;9.960;2023-05-29T09:31:58;9.40;;;2.83;;
39442;SDS011;25147;52.142;9.960;2023-05-29T09:34:25;8.23;;;3.08;;
39442;SDS011;25147;52.142;9.960;2023-05-29T09:36:53;8.50;;;3.20;;
39442;SDS011;25147;52.142;9.960;2023-05-29T09:39:35;12.60;;;3.50;;
39442;SDS011;25147;52.142;9.960;2023-05-29T09:42:11;6.90;;;3.08;;
39442;SDS011;25147;52.142;9.960;2023-05-29T09:44:39;7.43;;;2.80;;
39442;SDS011;25147;52.142;9.960;2023-05-29T09:47:07;10.35;;;2.90;;
39442;SDS011;25147;52.142;9.960;2023-05-29T09:49:33;8.57;;;2.63;;
39442;SDS011;25147;52.142;9.960;2023-05-29T09:52:03;9.88;;;3.10;;
39442;SDS011;25147;52.142;9.960;2023-05-29T09:54:34;9.38;;;3.08;;
39442;SDS011;25147;52.142;9.960;2023-05-29T09:57:03;7.88;;;2.92;;
39442;SDS011;25147;52.142;9.960;2023-05-29T09:59:31;7.53;;;2.80;;
39442;SDS011;25147;52.142;9.960;2023-05-29T10:02:01;7.03;;;3.00;;
39442;SDS011;25147;52.142;9.960;2023-05-29T10:04:32;9.45;;;3.33;;
39442;SDS011;25147;52.142;9.960;2023-05-29T10:07:01;8.20;;;2.85;;
39442;SDS011;25147;52.142;9.960;2023-05-29T10:09:38;8.07;;;3.10;;
39442;SDS011;25147;52.142;9.960;2023-05-29T10:12:11;6.95;;;2.78;;
39442;SDS011;25147;52.142;9.960;2023-05-29T10:14:40;7.43;;;2.90;;
39442;SDS011;25147;52.142;9.960;2023-05-29T10:17:10;9.70;;;3.05;;
39442;SDS011;25147;52.142;9.960;2023-05-29T10:19:40;9.15;;;3.10;;
39442;SDS011;25147;52.142;9.960;2023-05-29T10:22:09;9.20;;;3.10;;
39442;SDS011;25147;52.142;9.960;2023-05-29T10:24:39;7.30;;;3.47;;
39442;SDS011;25147;52.142;9.960;2023-05-29T10:27:07;8.35;;;3.03;;
39442;SDS011;25147;52.142;9.960;2023-05-29T10:29:40;7.57;;;3.30;;
39442;SDS011;25147;52.142;9.960;2023-05-29T10:32:20;6.63;;;2.97;;
39442;SDS011;25147;52.142;9.960;2023-05-29T10:35:01;12.63;;;3.10;;
39442;SDS011;25147;52.142;9.960;2023-05-29T10:37:36;6.55;;;3.30;;
39442;SDS011;25147;52.142;9.960;2023-05-29T10:40:08;7.95;;;3.38;;
39442;SDS011;25147;52.142;9.960;2023-05-29T10:42:41;7.10;;;3.35;;
39442;SDS011;25147;52.142;9.960;2023-05-29T10:45:47;6.53;;;3.03;;
39442;SDS011;25147;52.142;9.960;2023-05-29T10:48:42;7.78;;;3.10;;
39442;SDS011;25147;52.142;9.960;2023-05-29T10:51:26;10.27;;;3.28;;
39442;SDS011;25147;52.142;9.960;2023-05-29T10:54:00;10.55;;;3.28;;
39442;SDS011;25147;52.142;9.960;2023-05-29T10:56:31;9.85;;;3.40;;
39442;SDS011;25147;52.142;9.960;2023-05-29T10:58:59;7.68;;;3.08;;
39442;SDS011;25147;52.142;9.960;2023-05-29T11:01:33;7.57;;;2.53;;
39442;SDS011;25147;52.142;9.960;2023-05-29T11:06:56;9.23;;;2.78;;
39442;SDS011;25147;52.142;9.960;2023-05-29T11:09:28;11.27;;;3.40;;
39442;SDS011;25147;52.142;9.960;2023-05-29T11:12:13;8.85;;;3.20;;
39442;SDS011;25147;52.142;9.960;2023-05-29T11:14:53;9.27;;;2.88;;
39442;SDS011;25147;52.142;9.960;2023-05-29T11:17:42;7.20;;;3.00;;
39442;SDS011;25147;52.142;9.960;2023-05-29T11:20:16;7.57;;;2.78;;
39442;SDS011;25147;52.142;9.960;2023-05-29T11:22:53;7.03;;;2.58;;
39442;SDS011;25147;52.142;9.960;2023-05-29T11:25:30;7.28;;;3.10;;
39442;SDS011;25147;52.142;9.960;2023-05-29T11:28:05;9.30;;;3.28;;
39442;SDS011;25147;52.142;9.960;2023-05-29T11:30:42;7.10;;;2.55;;
39442;SDS011;25147;52.142;9.960;2023-05-29T11:33:12;6.05;;;3.15;;
39442;SDS011;25147;52.142;9.960;2023-05-29T11:35:46;8.10;;;2.75;;
39442;SDS011;25147;52.142;9.960;2023-05-29T11:38:16;7.57;;;2.85;;
39442;SDS011;25147;52.142;9.960;2023-05-29T11:40:43;4.85;;;2.50;;
39442;SDS011;25147;52.142;9.960;2023-05-29T11:43:12;8.65;;;2.50;;
39442;SDS011;25147;52.142;9.960;2023-05-29T11:45:39;5.88;;;3.10;;
39442;SDS011;25147;52.142;9.960;2023-05-29T11:48:06;7.60;;;2.90;;
39442;SDS011;25147;52.142;9.960;2023-05-29T11:50:35;9.55;;;3.35;;
39442;SDS011;25147;52.142;9.960;2023-05-29T11:53:05;6.65;;;2.85;;
39442;SDS011;25147;52.142;9.960;2023-05-29T11:55:33;6.88;;;2.72;;
39442;SDS011;25147;52.142;9.960;2023-05-29T11:58:06;4.63;;;2.70;;
39442;SDS011;25147;52.142;9.960;2023-05-29T12:00:36;7.75;;;2.80;;
39442;SDS011;25147;52.142;9.960;2023-05-29T12:03:04;10.02;;;3.30;;
39442;SDS011;25147;52.142;9.960;2023-05-29T12:05:32;7.00;;;3.20;;
39442;SDS011;25147;52.142;9.960;2023-05-29T12:08:14;6.95;;;3.15;;
39442;SDS011;25147;52.142;9.960;2023-05-29T12:10:47;8.10;;;3.20;;
39442;SDS011;25147;52.142;9.960;2023-05-29T12:13:14;8.02;;;3.00;;
39442;SDS011;25147;52.142;9.960;2023-05-29T12:15:44;8.27;;;3.00;;
39442;SDS011;25147;52.142;9.960;2023-05-29T12:18:10;7.72;;;2.70;;
39442;SDS011;25147;52.142;9.960;2023-05-29T12:20:38;7.07;;;3.20;;
39442;SDS011;25147;52.142;9.960;2023-05-29T12:23:05;8.65;;;2.88;;
39442;SDS011;25147;52.142;9.960;2023-05-29T12:25:33;7.82;;;3.30;;
39442;SDS011;25147;52.142;9.960;2023-05-29T12:28:05;7.45;;;2.65;;
39442;SDS011;25147;52.142;9.960;2023-05-29T12:30:36;6.50;;;2.67;;
39442;SDS011;25147;52.142;9.960;2023-05-29T12:33:08;6.13;;;3.40;;
39442;SDS011;25147;52.142;9.960;2023-05-29T12:35:34;6.93;;;2.78;;
39442;SDS011;25147;52.142;9.960;2023-05-29T12:38:01;6.10;;;2.70;;
39442;SDS011;25147;52.142;9.960;2023-05-29T12:40:34;8.80;;;3.00;;
39442;SDS011;25147;52.142;9.960;2023-05-29T12:43:02;7.28;;;3.03;;
39442;SDS011;25147;52.142;9.960;2023-05-29T12:45:32;6.70;;;2.53;;
39442;SDS011;25147;52.142;9.960;2023-05-29T12:47:59;6.50;;;2.90;;
39442;SDS011;25147;52.142;9.960;2023-05-29T12:50:29;8.57;;;2.97;;
39442;SDS011;25147;52.142;9.960;2023-05-29T12:52:57;5.95;;;3.05;;
39442;SDS011;25147;52.142;9.960;2023-05-29T12:55:26;7.22;;;3.08;;
39442;SDS011;25147;52.142;9.960;2023-05-29T12:57:54;7.07;;;3.08;;
39442;SDS011;25147;52.142;9.960;2023-05-29T13:00:21;6.22;;;3.58;;
39442;SDS011;25147;52.142;9.960;2023-05-29T13:02:48;7.53;;;3.08;;
39442;SDS011;25147;52.142;9.960;2023-05-29T13:05:16;5.28;;;2.70;;
39442;SDS011;25147;52.142;9.960;2023-05-29T13:07:45;8.25;;;3.55;;
39442;SDS011;25147;52.142;9.960;2023-05-29T13:10:13;5.55;;;2.42;;
39442;SDS011;25147;52.142;9.960;2023-05-29T13:12:40;6.30;;;3.30;;
39442;SDS011;25147;52.142;9.960;2023-05-29T13:15:07;6.95;;;3.30;;
39442;SDS011;25147;52.142;9.960;2023-05-29T13:17:34;5.80;;;3.10;;
39442;SDS011;25147;52.142;9.960;2023-05-29T13:20:04;4.43;;;2.45;;
39442;SDS011;25147;52.142;9.960;2023-05-29T13:22:33;6.30;;;2.90;;
39442;SDS011;25147;52.142;9.960;2023-05-29T13:25:01;5.75;;;2.88;;
39442;SDS011;25147;52.142;9.960;2023-05-29T13:27:31;10.18;;;3.35;;
39442;SDS011;25147;52.142;9.960;2023-05-29T13:29:58;7.43;;;3.38;;
39442;SDS011;25147;52.142;9.960;2023-05-29T13:32:25;11.10;;;2.90;;
39442;SDS011;25147;52.142;9.960;2023-05-29T13:34:52;7.28;;;3.22;;
39442;SDS011;25147;52.142;9.960;2023-05-29T13:37:19;7.20;;;2.92;;
39442;SDS011;25147;52.142;9.960;2023-05-29T13:39:46;7.97;;;3.15;;
39442;SDS011;25147;52.142;9.960;2023-05-29T13:42:14;6.75;;;2.88;;
39442;SDS011;25147;52.142;9.960;2023-05-29T13:44:41;6.40;;;3.00;;
39442;SDS011;25147;52.142;9.960;2023-05-29T13:47:08;8.73;;;3.03;;
39442;SDS011;25147;52.142;9.960;2023-05-29T13:49:35;8.23;;;3.28;;
39442;SDS011;25147;52.142;9.960;2023-05-29T13:52:06;9.45;;;3.45;;
39442;SDS011;25147;52.142;9.960;2023-05-29T13:54:33;6.85;;;3.33;;
39442;SDS011;25147;52.142;9.960;2023-05-29T13:57:01;8.18;;;3.10;;
39442;SDS011;25147;52.142;9.960;2023-05-29T13:59:29;5.85;;;2.85;;
39442;SDS011;25147;52.142;9.960;2023-05-29T14:01:56;6.07;;;3.22;;
39442;SDS011;25147;52.142;9.960;2023-05-29T14:04:23;6.38;;;2.85;;
39442;SDS011;25147;52.142;9.960;2023-05-29T14:06:51;4.35;;;2.80;;
39442;SDS011;25147;52.142;9.960;2023-05-29T14:09:18;5.95;;;3.10;;
39442;SDS011;25147;52.142;9.960;2023-05-29T14:11:51;9.65;;;3.00;;
39442;SDS011;25147;52.142;9.960;2023-05-29T14:14:18;7.72;;;3.20;;
39442;SDS011;25147;52.142;9.960;2023-05-29T14:16:46;5.22;;;2.97;;
39442;SDS011;25147;52.142;9.960;2023-05-29T14:19:14;7.18;;;2.90;;
39442;SDS011;25147;52.142;9.960;2023-05-29T14:21:41;6.05;;;3.13;;
39442;SDS011;25147;52.142;9.960;2023-05-29T14:24:07;7.13;;;3.05;;
39442;SDS011;25147;52.142;9.960;2023-05-29T14:26:34;7.80;;;2.92;;
39442;SDS011;25147;52.142;9.960;2023-05-29T14:29:02;6.97;;;3.03;;
39442;SDS011;25147;52.142;9.960;2023-05-29T14:31:29;5.85;;;3.17;;
39442;SDS011;25147;52.142;9.960;2023-05-29T14:33:57;5.38;;;2.90;;
39442;SDS011;25147;52.142;9.960;2023-05-29T14:36:24;5.82;;;2.85;;
39442;SDS011;25147;52.142;9.960;2023-05-29T14:38:50;7.15;;;2.97;;
39442;SDS011;25147;52.142;9.960;2023-05-29T14:41:17;6.90;;;3.10;;
39442;SDS011;25147;52.142;9.960;2023-05-29T14:43:44;6.00;;;2.95;;
39442;SDS011;25147;52.142;9.960;2023-05-29T14:46:11;5.70;;;2.83;;
39442;SDS011;25147;52.142;9.960;2023-05-29T14:48:38;7.50;;;2.60;;
39442;SDS011;25147;52.142;9.960;2023-05-29T14:51:06;6.95;;;2.78;;
39442;SDS011;25147;52.142;9.960;2023-05-29T14:53:35;7.05;;;3.20;;
39442;SDS011;25147;52.142;9.960;2023-05-29T14:56:01;6.20;;;2.78;;
39442;SDS011;25147;52.142;9.960;2023-05-29T14:58:28;5.15;;;2.63;;
39442;SDS011;25147;52.142;9.960;2023-05-29T15:00:55;8.02;;;2.97;;
39442;SDS011;25147;52.142;9.960;2023-05-29T15:03:23;8.05;;;2.38;;
39442;SDS011;25147;52.142;9.960;2023-05-29T15:05:52;6.03;;;2.95;;
39442;SDS011;25147;52.142;9.960;2023-05-29T15:08:20;7.53;;;2.90;;